createdAt,value
2023-09-23T00:01:52.895Z,4.87
2023-09-23T00:04:56.013Z,5.00
2023-09-23T00:08:00.203Z,5.13
2023-09-23T00:11:03.590Z,5.10
2023-09-23T00:14:07.162Z,5.78
2023-09-23T00:17:10.277Z,5.00
2023-09-23T00:20:16.585Z,5.00
2023-09-23T00:23:21.325Z,4.75
2023-09-23T00:26:24.452Z,4.85
2023-09-23T00:29:29.423Z,5.15
2023-09-23T00:32:35.346Z,5.50
2023-09-23T00:35:38.375Z,4.90
2023-09-23T00:38:41.693Z,5.15
2023-09-23T00:41:45.183Z,4.88
2023-09-23T00:44:48.776Z,4.82
2023-09-23T00:47:54.453Z,5.20
2023-09-23T00:50:58.066Z,5.07
2023-09-23T00:54:01.228Z,5.25
2023-09-23T00:57:07.613Z,5.93
2023-09-23T01:00:25.992Z,5.45
2023-09-23T01:03:32.237Z,5.47
2023-09-23T01:06:35.445Z,4.67
2023-09-23T01:09:38.634Z,5.13
2023-09-23T01:12:41.691Z,5.80
2023-09-23T01:15:47.854Z,4.90
2023-09-23T01:18:51.293Z,4.80
2023-09-23T01:21:57.053Z,5.63
2023-09-23T01:25:00.113Z,4.70
2023-09-23T01:28:09.471Z,4.78
2023-09-23T01:31:12.643Z,5.05
2023-09-23T01:34:15.839Z,5.27
2023-09-23T01:37:19.988Z,5.87
2023-09-23T01:40:26.163Z,6.22
2023-09-23T01:43:29.226Z,5.40
2023-09-23T01:46:32.232Z,5.43
2023-09-23T01:49:35.250Z,5.97
2023-09-23T01:52:38.876Z,6.13
2023-09-23T01:55:41.938Z,5.70
2023-09-23T01:58:45.954Z,6.05
2023-09-23T02:01:50.168Z,7.05
2023-09-23T02:04:53.205Z,5.83
2023-09-23T02:07:56.525Z,6.37
2023-09-23T02:10:59.641Z,6.18
2023-09-23T02:14:02.706Z,6.30
2023-09-23T02:17:05.824Z,5.68
2023-09-23T02:20:13.299Z,6.43
2023-09-23T02:23:16.422Z,5.57
2023-09-23T02:26:22.096Z,5.88
2023-09-23T02:29:25.159Z,6.15
2023-09-23T02:32:28.177Z,6.18
2023-09-23T02:35:31.716Z,5.60
2023-09-23T02:38:34.753Z,5.80
2023-09-23T02:41:37.813Z,6.30
2023-09-23T02:44:42.261Z,6.20
2023-09-23T02:47:47.470Z,7.40
2023-09-23T02:50:50.776Z,6.00
2023-09-23T02:53:53.853Z,6.03
2023-09-23T02:56:57.150Z,5.85
2023-09-23T03:00:00.342Z,6.18
2023-09-23T03:03:13.502Z,6.22
2023-09-23T03:06:17.436Z,5.80
2023-09-23T03:09:27.235Z,5.90
2023-09-23T03:12:42.072Z,6.57
2023-09-23T03:15:51.515Z,5.80
2023-09-23T03:19:12.222Z,6.05
2023-09-23T03:22:15.548Z,6.10
2023-09-23T03:25:21.723Z,5.57
2023-09-23T03:28:24.840Z,6.25
2023-09-23T03:31:28.352Z,5.43
2023-09-23T03:34:33.587Z,5.65
2023-09-23T03:37:37.336Z,5.70
2023-09-23T03:40:40.436Z,5.70
2023-09-23T03:43:45.014Z,6.18
2023-09-23T03:46:49.256Z,6.78
2023-09-23T03:49:53.577Z,6.53
2023-09-23T03:52:56.868Z,6.37
2023-09-23T03:56:02.033Z,6.43
2023-09-23T03:59:07.334Z,6.55
2023-09-23T04:02:10.578Z,6.97
2023-09-23T04:05:15.739Z,6.85
2023-09-23T04:08:18.833Z,5.73
2023-09-23T04:11:21.935Z,6.43
2023-09-23T04:14:28.136Z,6.47
2023-09-23T04:17:31.655Z,6.75
2023-09-23T04:20:34.736Z,6.60
2023-09-23T04:23:37.770Z,6.73
2023-09-23T04:26:40.737Z,7.40
2023-09-23T04:29:44.455Z,7.03
2023-09-23T04:32:47.998Z,6.60
2023-09-23T04:35:52.636Z,7.10
2023-09-23T04:38:55.717Z,6.83
2023-09-23T04:41:58.742Z,7.60
2023-09-23T04:45:01.699Z,6.80
2023-09-23T04:48:07.321Z,7.00
2023-09-23T04:51:10.407Z,6.75
2023-09-23T04:54:13.468Z,6.07
2023-09-23T04:57:16.421Z,7.67
2023-09-23T05:00:20.845Z,6.65
2023-09-23T05:03:24.947Z,6.65
2023-09-23T05:06:27.937Z,6.95
2023-09-23T05:09:31.772Z,6.70
2023-09-23T05:12:35.308Z,6.17
2023-09-23T05:15:38.805Z,7.20
2023-09-23T05:18:42.244Z,6.18
2023-09-23T05:21:46.277Z,7.03
2023-09-23T05:24:51.628Z,6.80
2023-09-23T05:27:56.477Z,7.20
2023-09-23T05:31:00.132Z,7.13
2023-09-23T05:34:04.557Z,6.07
2023-09-23T05:37:07.755Z,6.93
2023-09-23T05:40:31.481Z,7.33
2023-09-23T05:43:34.536Z,6.83
2023-09-23T05:46:39.258Z,6.38
2023-09-23T05:49:45.227Z,7.63
2023-09-23T05:52:50.079Z,7.32
2023-09-23T05:55:53.145Z,7.47
2023-09-23T05:58:56.232Z,7.93
2023-09-23T06:01:59.463Z,7.00
2023-09-23T06:05:03.342Z,7.22
2023-09-23T06:08:06.941Z,7.30
2023-09-23T06:11:12.402Z,7.03
2023-09-23T06:14:15.566Z,7.33
2023-09-23T06:17:18.636Z,6.82
2023-09-23T06:20:21.740Z,6.53
2023-09-23T06:23:25.502Z,8.15
2023-09-23T06:26:28.558Z,7.40
2023-09-23T06:29:31.702Z,7.27
2023-09-23T06:32:34.889Z,8.10
2023-09-23T06:35:37.992Z,7.75
2023-09-23T06:38:41.011Z,7.72
2023-09-23T06:41:44.023Z,8.80
2023-09-23T06:44:47.045Z,8.30
2023-09-23T06:47:50.114Z,8.55
2023-09-23T06:51:03.100Z,8.90
2023-09-23T06:54:06.514Z,8.68
2023-09-23T06:57:10.209Z,9.40
2023-09-23T07:00:13.652Z,9.90
2023-09-23T07:03:16.898Z,10.52
2023-09-23T07:06:19.962Z,10.43
2023-09-23T07:09:22.932Z,10.63
2023-09-23T07:12:25.930Z,11.10
2023-09-23T07:15:29.636Z,10.10
2023-09-23T07:18:34.751Z,10.38
2023-09-23T07:21:39.960Z,11.57
2023-09-23T07:24:43.847Z,11.13
2023-09-23T07:27:47.017Z,12.70
2023-09-23T07:30:50.131Z,10.27
2023-09-23T07:33:53.311Z,9.63
2023-09-23T07:36:56.537Z,10.68
2023-09-23T07:39:59.546Z,11.00
2023-09-23T07:43:02.638Z,10.97
2023-09-23T07:46:05.815Z,11.50
2023-09-23T07:49:08.857Z,11.38
2023-09-23T07:52:11.893Z,11.30
2023-09-23T07:55:15.094Z,11.40
2023-09-23T07:58:18.219Z,10.83
2023-09-23T08:01:21.275Z,8.93
2023-09-23T08:04:24.300Z,10.75
2023-09-23T08:07:27.286Z,11.32
2023-09-23T08:10:30.336Z,9.68
2023-09-23T08:13:33.354Z,8.93
2023-09-23T08:16:36.419Z,9.60
2023-09-23T08:19:39.587Z,9.15
2023-09-23T08:22:42.808Z,10.25
2023-09-23T08:25:45.813Z,10.85
2023-09-23T08:28:49.310Z,13.93
2023-09-23T08:31:52.905Z,15.57
2023-09-23T08:34:55.975Z,12.32
2023-09-23T08:37:59.036Z,11.50
2023-09-23T08:41:04.191Z,9.63
2023-09-23T08:44:07.544Z,9.60
2023-09-23T08:47:10.953Z,9.30
2023-09-23T08:50:14.014Z,8.23
2023-09-23T08:53:17.029Z,8.82
2023-09-23T08:56:21.311Z,8.10
2023-09-23T08:59:24.679Z,7.67
2023-09-23T09:02:27.986Z,6.90
2023-09-23T09:05:40.660Z,6.63
2023-09-23T09:08:44.147Z,6.93
2023-09-23T09:11:48.457Z,6.38
2023-09-23T09:14:54.451Z,6.50
2023-09-23T09:17:59.696Z,6.70
2023-09-23T09:21:02.870Z,6.55
2023-09-23T09:24:06.189Z,7.28
2023-09-23T09:27:15.476Z,6.90
2023-09-23T09:30:20.344Z,7.93
2023-09-23T09:33:25.654Z,6.73
2023-09-23T09:36:28.810Z,7.25
2023-09-23T09:39:32.486Z,7.18
2023-09-23T09:42:35.503Z,7.35
2023-09-23T09:45:41.904Z,8.47
2023-09-23T09:48:45.214Z,9.17
2023-09-23T09:51:50.147Z,10.07
2023-09-23T09:54:56.965Z,9.50
2023-09-23T09:58:02.643Z,9.10
2023-09-23T10:01:06.076Z,9.60
2023-09-23T10:04:13.172Z,8.77
2023-09-23T10:07:17.957Z,9.70
2023-09-23T10:10:38.956Z,8.55
2023-09-23T10:13:43.628Z,8.68
2023-09-23T10:16:53.464Z,8.60
2023-09-23T10:19:57.377Z,8.53
2023-09-23T10:23:01.075Z,7.10
2023-09-23T10:26:22.125Z,6.70
2023-09-23T10:29:25.186Z,6.53
2023-09-23T10:32:28.242Z,7.10
2023-09-23T10:35:31.490Z,6.87
2023-09-23T10:38:39.438Z,6.15
2023-09-23T10:41:42.461Z,6.80
2023-09-23T10:44:49.138Z,4.60
2023-09-23T10:47:52.252Z,5.00
2023-09-23T10:50:55.378Z,4.20
2023-09-23T10:53:58.701Z,4.13
2023-09-23T10:57:01.820Z,4.07
2023-09-23T11:00:14.226Z,4.47
2023-09-23T11:03:18.952Z,4.20
2023-09-23T11:06:22.154Z,3.83
2023-09-23T11:09:27.455Z,3.42
2023-09-23T11:12:34.610Z,3.60
2023-09-23T11:15:41.498Z,4.30
2023-09-23T11:18:45.747Z,3.70
2023-09-23T11:21:49.207Z,3.47
2023-09-23T11:24:52.639Z,3.95
2023-09-23T11:27:59.898Z,4.10
2023-09-23T11:31:03.161Z,4.07
2023-09-23T11:34:06.207Z,3.83
2023-09-23T11:37:09.739Z,4.33
2023-09-23T11:40:15.933Z,4.10
2023-09-23T11:43:18.923Z,4.03
2023-09-23T11:46:23.521Z,4.90
2023-09-23T11:49:26.929Z,4.50
2023-09-23T11:52:29.985Z,4.57
2023-09-23T11:55:34.301Z,4.70
2023-09-23T11:58:37.724Z,4.88
2023-09-23T12:01:40.739Z,4.70
2023-09-23T12:04:43.797Z,4.70
2023-09-23T12:07:47.193Z,4.50
2023-09-23T12:10:50.267Z,4.28
2023-09-23T12:13:54.170Z,3.92
2023-09-23T12:16:57.355Z,4.72
2023-09-23T12:20:00.432Z,4.80
2023-09-23T12:23:04.431Z,4.40
2023-09-23T12:26:07.600Z,5.32
2023-09-23T12:29:10.595Z,4.22
2023-09-23T12:32:13.908Z,4.80
2023-09-23T12:35:17.021Z,4.50
2023-09-23T12:38:20.158Z,4.60
2023-09-23T12:41:23.181Z,4.88
2023-09-23T12:44:26.310Z,5.03
2023-09-23T12:47:37.301Z,4.90
2023-09-23T12:50:47.832Z,5.53
2023-09-23T12:53:50.869Z,4.50
2023-09-23T12:56:53.929Z,4.97
2023-09-23T12:59:57.068Z,5.75
2023-09-23T13:03:00.229Z,5.20
2023-09-23T13:06:03.386Z,5.53
2023-09-23T13:09:06.565Z,4.60
2023-09-23T13:12:09.537Z,5.07
2023-09-23T13:15:13.825Z,5.25
2023-09-23T13:18:17.901Z,4.82
2023-09-23T13:21:21.547Z,4.90
2023-09-23T13:24:24.673Z,3.80
2023-09-23T13:27:27.906Z,4.25
2023-09-23T13:30:30.935Z,4.20
2023-09-23T13:33:34.069Z,3.42
2023-09-23T13:36:37.161Z,3.03
2023-09-23T13:39:40.171Z,2.30
2023-09-23T13:42:43.243Z,2.05
2023-09-23T13:45:46.912Z,2.10
2023-09-23T13:48:50.237Z,2.22
2023-09-23T13:51:53.477Z,2.20
2023-09-23T13:54:56.609Z,2.20
2023-09-23T13:57:59.713Z,2.30
2023-09-23T14:01:02.790Z,3.03
2023-09-23T14:04:07.894Z,2.50
2023-09-23T14:07:11.228Z,2.60
2023-09-23T14:10:21.458Z,2.90
2023-09-23T14:13:25.899Z,3.42
2023-09-23T14:16:28.919Z,3.10
2023-09-23T14:19:33.581Z,2.83
2023-09-23T14:22:36.588Z,2.60
2023-09-23T14:25:39.685Z,2.70
2023-09-23T14:28:44.118Z,2.80
2023-09-23T14:31:47.275Z,2.85
2023-09-23T14:34:50.281Z,2.78
2023-09-23T14:37:53.358Z,2.70
2023-09-23T14:40:56.797Z,2.80
2023-09-23T14:43:59.792Z,2.35
2023-09-23T14:47:02.863Z,2.40
2023-09-23T14:50:08.002Z,2.75
2023-09-23T14:53:11.094Z,2.77
2023-09-23T14:56:14.217Z,2.60
2023-09-23T14:59:18.582Z,2.78
2023-09-23T15:02:21.711Z,3.00
2023-09-23T15:05:25.138Z,2.70
2023-09-23T15:08:28.971Z,2.97
2023-09-23T15:11:32.061Z,3.40
2023-09-23T15:14:36.604Z,3.13
2023-09-23T15:17:40.396Z,2.70
2023-09-23T15:20:43.729Z,3.40
2023-09-23T15:23:46.835Z,3.03
2023-09-23T15:26:49.945Z,3.10
2023-09-23T15:29:53.546Z,3.30
2023-09-23T15:32:56.678Z,2.85
2023-09-23T15:35:59.923Z,3.00
2023-09-23T15:39:03.326Z,3.10
2023-09-23T15:42:06.705Z,2.60
2023-09-23T15:45:09.932Z,2.72
2023-09-23T15:48:12.979Z,2.47
2023-09-23T15:51:20.818Z,2.40
2023-09-23T15:54:23.894Z,2.70
2023-09-23T15:57:27.467Z,2.47
2023-09-23T16:00:30.857Z,2.65
2023-09-23T16:03:34.560Z,2.90
2023-09-23T16:06:38.209Z,3.17
2023-09-23T16:09:41.229Z,3.43
2023-09-23T16:12:44.239Z,3.67
2023-09-23T16:15:47.490Z,3.75
2023-09-23T16:18:50.607Z,2.63
2023-09-23T16:21:53.658Z,2.45
2023-09-23T16:24:56.662Z,2.40
2023-09-23T16:27:59.735Z,2.00
2023-09-23T16:31:02.724Z,2.80
2023-09-23T16:34:06.045Z,3.30
2023-09-23T16:37:09.119Z,2.80
2023-09-23T16:40:12.458Z,2.80
2023-09-23T16:43:15.507Z,2.60
2023-09-23T16:46:18.644Z,2.50
2023-09-23T16:49:21.810Z,3.05
2023-09-23T16:52:24.850Z,2.72
2023-09-23T16:55:28.866Z,3.03
2023-09-23T16:58:31.901Z,2.90
2023-09-23T17:01:34.950Z,2.95
2023-09-23T17:04:38.102Z,3.05
2023-09-23T17:07:41.217Z,2.95
2023-09-23T17:10:44.260Z,2.37
2023-09-23T17:13:48.672Z,2.77
2023-09-23T17:16:52.078Z,3.03
2023-09-23T17:19:56.358Z,2.80
2023-09-23T17:22:59.938Z,2.00
2023-09-23T17:26:06.432Z,2.13
2023-09-23T17:29:09.628Z,2.23
2023-09-23T17:32:12.685Z,2.10
2023-09-23T17:35:16.918Z,2.45
2023-09-23T17:38:19.986Z,1.95
2023-09-23T17:41:23.385Z,2.47
2023-09-23T17:44:26.695Z,2.30
2023-09-23T17:47:29.805Z,2.17
2023-09-23T17:50:34.624Z,2.03
2023-09-23T17:53:37.861Z,2.50
2023-09-23T17:56:40.970Z,2.77
2023-09-23T17:59:44.295Z,2.80
2023-09-23T18:02:47.449Z,2.25
2023-09-23T18:05:51.702Z,2.15
2023-09-23T18:08:54.857Z,2.97
2023-09-23T18:11:57.869Z,2.20
2023-09-23T18:15:00.845Z,2.50
2023-09-23T18:18:04.054Z,2.05
2023-09-23T18:21:07.261Z,2.58
2023-09-23T18:24:10.345Z,3.17
2023-09-23T18:27:13.719Z,3.00
2023-09-23T18:30:16.890Z,2.40
2023-09-23T18:33:20.194Z,2.42
2023-09-23T18:36:23.621Z,2.80
2023-09-23T18:39:26.652Z,2.45
2023-09-23T18:42:29.693Z,2.47
2023-09-23T18:45:32.851Z,2.60
2023-09-23T18:48:36.005Z,2.22
2023-09-23T18:51:39.036Z,2.20
2023-09-23T18:54:42.038Z,2.30
2023-09-23T18:57:45.070Z,2.43
2023-09-23T19:00:48.196Z,2.87
2023-09-23T19:03:51.541Z,2.58
2023-09-23T19:06:55.000Z,2.80
2023-09-23T19:09:58.092Z,2.63
2023-09-23T19:13:01.758Z,2.90
2023-09-23T19:16:05.960Z,2.83
2023-09-23T19:19:10.493Z,2.88
2023-09-23T19:22:13.509Z,2.63
2023-09-23T19:25:17.780Z,3.13
2023-09-23T19:28:23.999Z,2.83
2023-09-23T19:31:27.100Z,2.63
2023-09-23T19:34:30.807Z,2.70
2023-09-23T19:37:34.113Z,2.50
2023-09-23T19:40:40.694Z,2.95
2023-09-23T19:43:43.751Z,2.40
2023-09-23T19:46:47.139Z,3.23
2023-09-23T19:49:54.120Z,2.88
2023-09-23T19:52:57.405Z,3.03
2023-09-23T19:56:00.376Z,2.80
2023-09-23T19:59:03.358Z,2.43
2023-09-23T20:02:06.400Z,2.90
2023-09-23T20:05:09.712Z,2.95
2023-09-23T20:08:13.067Z,3.53
2023-09-23T20:11:18.616Z,3.20
2023-09-23T20:14:21.623Z,3.30
2023-09-23T20:17:25.452Z,3.10
2023-09-23T20:20:30.681Z,3.60
2023-09-23T20:23:33.855Z,3.53
2023-09-23T20:26:37.316Z,3.08
2023-09-23T20:29:59.696Z,3.60
2023-09-23T20:33:07.980Z,2.97
2023-09-23T20:36:11.337Z,2.92
2023-09-23T20:39:14.361Z,3.70
2023-09-23T20:42:17.377Z,3.30
2023-09-23T20:45:20.448Z,3.53
2023-09-23T20:48:23.769Z,3.50
2023-09-23T20:51:27.074Z,3.33
2023-09-23T20:54:30.304Z,3.42
2023-09-23T20:57:34.572Z,3.40
2023-09-23T21:00:37.773Z,3.73
2023-09-23T21:03:40.998Z,3.50
2023-09-23T21:06:44.141Z,3.70
2023-09-23T21:09:47.134Z,3.40
2023-09-23T21:12:50.751Z,3.60
2023-09-23T21:16:04.441Z,3.80
2023-09-23T21:19:07.537Z,3.50
2023-09-23T21:22:10.527Z,3.45
2023-09-23T21:25:13.855Z,3.92
2023-09-23T21:28:17.460Z,3.67
2023-09-23T21:31:20.481Z,3.80
2023-09-23T21:34:23.548Z,3.70
2023-09-23T21:37:26.520Z,3.20
2023-09-23T21:40:29.470Z,3.83
2023-09-23T21:43:32.534Z,3.88
2023-09-23T21:46:35.651Z,4.07
2023-09-23T21:49:39.109Z,3.80
2023-09-23T21:52:42.348Z,4.20
2023-09-23T21:55:45.332Z,4.25
2023-09-23T21:58:48.637Z,3.83
2023-09-23T22:01:51.689Z,3.87
2023-09-23T22:04:54.818Z,4.00
2023-09-23T22:07:59.793Z,4.10
2023-09-23T22:11:03.577Z,3.95
2023-09-23T22:14:10.286Z,4.40
2023-09-23T22:17:15.077Z,7.67
2023-09-23T22:20:19.021Z,3.73
2023-09-23T22:23:22.092Z,3.92
2023-09-23T22:26:25.445Z,3.38
2023-09-23T22:29:28.644Z,2.88
2023-09-23T22:32:31.803Z,3.87
2023-09-23T22:35:35.154Z,3.27
2023-09-23T22:38:38.249Z,3.20
2023-09-23T22:41:41.429Z,3.50
2023-09-23T22:44:44.514Z,3.42
2023-09-23T22:47:48.537Z,3.33
2023-09-23T22:50:51.776Z,3.50
2023-09-23T22:53:54.845Z,4.13
2023-09-23T22:56:58.948Z,4.40
2023-09-23T23:00:02.210Z,4.15
2023-09-23T23:03:07.841Z,4.03
2023-09-23T23:06:11.962Z,4.20
2023-09-23T23:09:15.604Z,4.32
2023-09-23T23:12:18.645Z,4.20
2023-09-23T23:15:21.751Z,4.80
2023-09-23T23:18:25.134Z,4.40
2023-09-23T23:21:28.147Z,5.17
2023-09-23T23:24:31.100Z,5.35
2023-09-23T23:27:34.460Z,5.32
2023-09-23T23:30:58.945Z,5.55
2023-09-23T23:34:02.360Z,5.40
2023-09-23T23:37:06.984Z,4.77
2023-09-23T23:40:10.096Z,5.40
2023-09-23T23:43:14.551Z,4.60
2023-09-23T23:46:19.135Z,4.57
2023-09-23T23:49:22.240Z,4.77
2023-09-23T23:52:25.465Z,4.20
2023-09-23T23:55:28.405Z,4.00
2023-09-23T23:58:31.492Z,4.00
